Terminal Aerodrome Forecast
Issued by NWS Goodland, KS

Home | Current Version | Previous Version | Text Only | Print | Product List | Glossary On
Versions: 1 2 3 4 5 6 7 8 9 10 11 12 13 14 15 16 17 18 19
000
FTUS43 KGLD 272341
TAFGLD
TAF
KGLD 272341Z 2800/2824 18016G23KT P6SM VCTS FEW120CB
     FM280200 18015G20KT P6SM SCT110
     FM280400 19015KT P6SM SCT130
     FM280800 24015KT P6SM SCT130
     FM281000 33015G25KT P6SM SCT130
     FM282000 01015KT P6SM SCT200=

USA.gov is the U.S. government's official web portal to all federal, state and local government web resources and services.